Time,TemperatureF,DewpointF,PressureIn,WindDirection,WindDirectionDegrees,WindSpeedMPH,WindSpeedGustMPH,Humidity,HourlyPrecipIn,Conditions,Clouds,dailyrainin,SoftwareType,DateUTC
2013-02-20 00:00:00,18.2,13.9,29.94,West,264,3.0,18.0,83,0.00,,---,0.24,VWS V14.00,2013-02-20 05:00:00,
2013-02-20 00:01:00,18.2,13.9,29.94,West,259,2.0,6.0,83,0.00,,---,0.00,VWS V14.00,2013-02-20 05:01:00,
2013-02-20 00:09:00,18.2,13.9,29.94,SSW,207,7.0,13.0,83,0.00,,---,0.00,VWS V14.00,2013-02-20 05:09:00,
2013-02-20 00:17:00,18.0,13.7,29.94,West,275,8.0,16.0,83,0.00,,---,0.00,VWS V14.00,2013-02-20 05:17:00,
2013-02-20 00:25:00,18.0,13.7,29.94,SW,232,5.0,17.0,83,0.00,,---,0.00,VWS V14.00,2013-02-20 05:25:00,
2013-02-20 00:30:00,17.9,13.6,29.95,SW,225,6.0,17.0,83,0.00,,---,0.00,VWS V14.00,2013-02-20 05:30:00,
2013-02-20 00:41:00,17.7,13.4,29.95,SW,219,6.0,12.0,83,0.00,,---,0.00,VWS V14.00,2013-02-20 05:41:00,
2013-02-20 00:49:00,17.6,13.6,29.95,SSW,211,6.0,13.0,84,0.00,,---,0.00,VWS V14.00,2013-02-20 05:49:00,
2013-02-20 00:57:00,17.5,13.5,29.95,WSW,250,4.0,16.0,84,0.00,,---,0.00,VWS V14.00,2013-02-20 05:57:00,
2013-02-20 01:05:00,17.4,13.4,29.95,West,281,8.0,20.0,84,0.00,,---,0.00,VWS V14.00,2013-02-20 06:05:00,
2013-02-20 01:13:00,17.4,13.4,29.95,WSW,246,8.0,20.0,84,0.00,,---,0.00,VWS V14.00,2013-02-20 06:13:00,
2013-02-20 01:21:00,17.4,13.4,29.95,West,263,10.0,20.0,84,0.00,,---,0.00,VWS V14.00,2013-02-20 06:21:00,
2013-02-20 01:29:00,17.4,13.4,29.96,WNW,286,2.0,20.0,84,0.00,,---,0.00,VWS V14.00,2013-02-20 06:29:00,
2013-02-20 01:37:00,17.4,13.4,29.96,SW,217,5.0,15.0,84,0.00,,---,0.00,VWS V14.00,2013-02-20 06:37:00,
2013-02-20 01:45:00,17.3,12.8,29.96,SW,232,3.0,18.0,82,0.00,,---,0.00,VWS V14.00,2013-02-20 06:45:00,
2013-02-20 01:53:00,17.4,12.9,29.96,SW,226,6.0,18.0,82,0.00,,---,0.00,VWS V14.00,2013-02-20 06:53:00,
2013-02-20 02:00:00,17.3,13.0,29.96,SW,218,11.0,18.0,83,0.00,,---,0.00,VWS V14.00,2013-02-20 07:00:00,
2013-02-20 02:09:00,17.2,12.9,29.97,West,275,10.0,17.0,83,0.00,,---,0.00,VWS V14.00,2013-02-20 07:09:00,
2013-02-20 02:17:00,17.1,12.8,29.97,West,266,2.0,17.0,83,0.00,,---,0.00,VWS V14.00,2013-02-20 07:17:00,
2013-02-20 02:25:00,17.0,13.0,29.97,SW,227,2.0,17.0,84,0.00,,---,0.00,VWS V14.00,2013-02-20 07:25:00,
2013-02-20 02:30:00,17.1,13.1,29.97,WSW,241,4.0,17.0,84,0.00,,---,0.00,VWS V14.00,2013-02-20 07:30:00,
2013-02-20 02:41:00,17.0,13.0,29.97,SW,219,6.0,15.0,84,0.00,,---,0.00,VWS V14.00,2013-02-20 07:41:00,
2013-02-20 02:49:00,16.8,13.1,29.97,NW,308,2.0,17.0,85,0.00,,---,0.00,VWS V14.00,2013-02-20 07:49:00,
2013-02-20 02:57:00,16.7,12.7,29.97,WSW,255,11.0,18.0,84,0.00,,---,0.00,VWS V14.00,2013-02-20 07:57:00,
2013-02-20 03:05:00,16.5,12.2,29.97,West,263,6.0,11.0,83,0.00,,---,0.00,VWS V14.00,2013-02-20 08:05:00,
2013-02-20 03:13:00,16.4,12.4,29.97,WNW,286,7.0,13.0,84,0.00,,---,0.00,VWS V14.00,2013-02-20 08:13:00,
2013-02-20 03:21:00,16.4,12.4,29.97,SW,233,7.0,15.0,84,0.00,,---,0.00,VWS V14.00,2013-02-20 08:21:00,
2013-02-20 03:29:00,16.3,12.3,29.97,SW,228,8.0,15.0,84,0.00,,---,0.00,VWS V14.00,2013-02-20 08:29:00,
2013-02-20 03:37:00,16.3,12.3,29.98,WSW,238,6.0,12.0,84,0.00,,---,0.00,VWS V14.00,2013-02-20 08:37:00,
2013-02-20 03:45:00,16.1,12.1,29.98,SW,225,7.0,18.0,84,0.00,,---,0.00,VWS V14.00,2013-02-20 08:45:00,
2013-02-20 03:53:00,15.8,11.8,29.98,WSW,244,5.0,18.0,84,0.00,,---,0.00,VWS V14.00,2013-02-20 08:53:00,
2013-02-20 04:00:00,15.6,11.6,29.98,WNW,290,2.0,19.0,84,0.00,,---,0.00,VWS V14.00,2013-02-20 09:00:00,
2013-02-20 04:09:00,15.3,11.3,29.98,WSW,237,4.0,14.0,84,0.00,,---,0.00,VWS V14.00,2013-02-20 09:09:00,
2013-02-20 04:17:00,15.3,11.3,29.98,West,263,8.0,17.0,84,0.00,,---,0.00,VWS V14.00,2013-02-20 09:17:00,
2013-02-20 04:25:00,15.3,11.1,29.98,West,279,7.0,19.0,83,0.00,,---,0.00,VWS V14.00,2013-02-20 09:25:00,
2013-02-20 04:30:00,15.3,11.1,29.99,WSW,249,10.0,19.0,83,0.00,,---,0.00,VWS V14.00,2013-02-20 09:30:00,
2013-02-20 04:41:00,15.2,11.0,30.00,West,279,6.0,19.0,83,0.00,,---,0.00,VWS V14.00,2013-02-20 09:41:00,
2013-02-20 04:49:00,15.2,11.0,29.99,SW,232,4.0,19.0,83,0.00,,---,0.00,VWS V14.00,2013-02-20 09:49:00,
2013-02-20 04:57:00,15.2,11.0,30.00,WNW,283,4.0,19.0,83,0.00,,---,0.00,VWS V14.00,2013-02-20 09:57:00,
2013-02-20 05:05:00,15.2,11.0,30.00,WSW,242,7.0,14.0,83,0.00,,---,0.00,VWS V14.00,2013-02-20 10:05:00,
2013-02-20 05:13:00,15.2,11.0,30.00,West,266,12.0,19.0,83,0.00,,---,0.00,VWS V14.00,2013-02-20 10:13:00,
2013-02-20 05:21:00,15.2,11.2,30.01,SW,223,5.0,19.0,84,0.00,,---,0.00,VWS V14.00,2013-02-20 10:21:00,
2013-02-20 05:29:00,15.2,11.2,30.01,WSW,241,6.0,19.0,84,0.00,,---,0.00,VWS V14.00,2013-02-20 10:29:00,
2013-02-20 05:37:00,15.0,11.1,30.01,West,281,6.0,17.0,84,0.00,,---,0.00,VWS V14.00,2013-02-20 10:37:00,
2013-02-20 05:45:00,15.0,11.3,30.01,WSW,244,8.0,17.0,85,0.00,,---,0.00,VWS V14.00,2013-02-20 10:45:00,
2013-02-20 05:53:00,14.9,11.5,30.01,WSW,239,5.0,17.0,86,0.00,,---,0.00,VWS V14.00,2013-02-20 10:53:00,
2013-02-20 06:00:00,14.9,11.5,30.02,WSW,249,4.0,17.0,86,0.00,,---,0.00,VWS V14.00,2013-02-20 11:00:00,
2013-02-20 06:09:00,14.9,11.5,30.02,West,266,8.0,13.0,86,0.00,,---,0.00,VWS V14.00,2013-02-20 11:09:00,
2013-02-20 06:17:00,14.8,11.4,30.02,WSW,245,10.0,15.0,86,0.00,,---,0.00,VWS V14.00,2013-02-20 11:17:00,
2013-02-20 06:25:00,14.8,11.6,30.02,SW,228,12.0,15.0,87,0.00,,---,0.00,VWS V14.00,2013-02-20 11:25:00,
2013-02-20 06:33:00,14.7,11.5,30.02,West,270,4.0,10.0,87,0.00,,---,0.00,VWS V14.00,2013-02-20 11:33:00,
2013-02-20 06:41:00,14.8,11.6,30.03,SW,232,7.0,15.0,87,0.00,,---,0.00,VWS V14.00,2013-02-20 11:41:00,
2013-02-20 06:49:00,14.7,11.5,30.03,WNW,284,6.0,17.0,87,0.00,,---,0.00,VWS V14.00,2013-02-20 11:49:00,
2013-02-20 06:57:00,14.6,11.4,30.03,WSW,255,4.0,17.0,87,0.00,,---,0.00,VWS V14.00,2013-02-20 11:57:00,
2013-02-20 07:05:00,14.6,11.4,30.03,WSW,247,8.0,13.0,87,0.00,,---,0.00,VWS V14.00,2013-02-20 12:05:00,
2013-02-20 07:13:00,14.7,11.5,30.03,SSW,207,4.0,13.0,87,0.00,,---,0.00,VWS V14.00,2013-02-20 12:13:00,
2013-02-20 07:21:00,14.8,11.6,30.04,West,261,4.0,14.0,87,0.00,,---,0.00,VWS V14.00,2013-02-20 12:21:00,
2013-02-20 07:29:00,14.8,11.6,30.04,WSW,240,3.0,14.0,87,0.00,,---,0.00,VWS V14.00,2013-02-20 12:29:00,
2013-02-20 07:37:00,14.9,11.7,30.05,WSW,239,1.0,12.0,87,0.00,,---,0.00,VWS V14.00,2013-02-20 12:37:00,
2013-02-20 07:45:00,14.9,11.7,30.05,West,278,6.0,13.0,87,0.00,,---,0.00,VWS V14.00,2013-02-20 12:45:00,
2013-02-20 07:53:00,15.0,11.8,30.05,West,268,1.0,13.0,87,0.00,,---,0.00,VWS V14.00,2013-02-20 12:53:00,
2013-02-20 08:00:00,15.1,11.9,30.05,West,259,8.0,13.0,87,0.00,,---,0.00,VWS V14.00,2013-02-20 13:00:00,
2013-02-20 08:09:00,15.2,12.0,30.06,WSW,238,2.0,11.0,87,0.00,,---,0.00,VWS V14.00,2013-02-20 13:09:00,
2013-02-20 08:17:00,15.3,12.1,30.06,WSW,244,9.0,11.0,87,0.00,,---,0.00,VWS V14.00,2013-02-20 13:17:00,
2013-02-20 08:25:00,15.5,12.3,30.06,West,273,2.0,11.0,87,0.00,,---,0.00,VWS V14.00,2013-02-20 13:25:00,
2013-02-20 08:33:00,15.7,12.5,30.06,WNW,290,4.0,4.0,87,0.00,,---,0.00,VWS V14.00,2013-02-20 13:33:00,
2013-02-20 08:41:00,15.9,12.7,30.06,WSW,255,3.0,13.0,87,0.00,,---,0.00,VWS V14.00,2013-02-20 13:41:00,
2013-02-20 08:49:00,16.1,12.9,30.06,SW,224,3.0,13.0,87,0.00,,---,0.00,VWS V14.00,2013-02-20 13:49:00,
2013-02-20 08:57:00,16.4,13.2,30.07,West,281,3.0,13.0,87,0.00,,---,0.00,VWS V14.00,2013-02-20 13:57:00,
2013-02-20 09:06:00,16.7,13.5,30.07,WSW,244,4.0,11.0,87,0.00,,---,0.00,VWS V14.00,2013-02-20 14:06:00,
2013-02-20 09:14:00,17.1,13.6,30.07,SW,226,6.0,11.0,86,0.00,,---,0.00,VWS V14.00,2013-02-20 14:14:00,
2013-02-20 09:22:00,17.1,13.6,30.07,WSW,246,5.0,11.0,86,0.00,,---,0.00,VWS V14.00,2013-02-20 14:22:00,
2013-02-20 09:30:00,17.1,13.6,30.07,West,278,5.0,12.0,86,0.00,,---,0.00,VWS V14.00,2013-02-20 14:30:00,
2013-02-20 09:38:00,17.4,13.9,30.06,West,274,4.0,13.0,86,0.00,,---,0.00,VWS V14.00,2013-02-20 14:38:00,
2013-02-20 09:46:00,17.6,13.9,30.07,SSW,199,2.0,15.0,85,0.00,,---,0.00,VWS V14.00,2013-02-20 14:46:00,
2013-02-20 09:54:00,17.6,13.6,30.07,NW,306,6.0,18.0,84,0.00,,---,0.00,VWS V14.00,2013-02-20 14:54:00,
2013-02-20 10:00:00,17.7,13.4,30.07,WNW,291,5.0,18.0,83,0.00,,---,0.00,VWS V14.00,2013-02-20 15:00:00,
2013-02-20 10:10:00,18.2,13.6,30.08,NW,315,8.0,17.0,82,0.00,,---,0.00,VWS V14.00,2013-02-20 15:10:00,
2013-02-20 10:18:00,18.2,13.9,30.08,WNW,303,9.0,17.0,83,0.00,,---,0.00,VWS V14.00,2013-02-20 15:18:00,
2013-02-20 10:26:00,17.5,14.0,30.09,NW,313,8.0,17.0,86,0.00,,---,0.00,VWS V14.00,2013-02-20 15:26:00,
2013-02-20 10:34:00,17.6,14.4,30.09,NW,311,6.0,13.0,87,0.00,,---,0.00,VWS V14.00,2013-02-20 15:34:00,
2013-02-20 10:42:00,18.0,14.8,30.10,NW,315,4.0,13.0,87,0.00,,---,0.00,VWS V14.00,2013-02-20 15:42:00,
2013-02-20 10:50:00,17.8,14.1,30.10,WNW,300,12.0,17.0,85,0.00,,---,0.00,VWS V14.00,2013-02-20 15:50:00,
2013-02-20 10:58:00,17.5,13.2,30.10,NW,315,4.0,20.0,83,0.00,,---,0.00,VWS V14.00,2013-02-20 15:58:00,
2013-02-20 11:06:00,17.3,13.3,30.11,NW,315,5.0,20.0,84,0.00,,---,0.00,VWS V14.00,2013-02-20 16:06:00,
2013-02-20 11:14:00,16.6,12.9,30.11,NW,316,5.0,20.0,85,0.00,,---,0.00,VWS V14.00,2013-02-20 16:14:00,
2013-02-20 11:22:00,16.6,13.1,30.11,NW,323,8.0,20.0,86,0.00,,---,0.00,VWS V14.00,2013-02-20 16:22:00,
2013-02-20 11:30:00,16.8,13.6,30.12,NW,306,5.0,20.0,87,0.00,,---,0.00,VWS V14.00,2013-02-20 16:30:00,
2013-02-20 11:38:00,15.9,12.7,30.12,NW,306,7.0,15.0,87,0.00,,---,0.00,VWS V14.00,2013-02-20 16:38:00,
2013-02-20 11:46:00,16.2,13.3,30.13,WNW,300,4.0,15.0,88,0.00,,---,0.00,VWS V14.00,2013-02-20 16:46:00,
2013-02-20 11:54:00,16.3,12.9,30.13,West,275,8.0,23.0,86,0.00,,---,0.00,VWS V14.00,2013-02-20 16:54:00,
2013-02-20 12:00:00,16.7,13.2,30.13,WNW,300,11.0,23.0,86,0.00,,---,0.00,VWS V14.00,2013-02-20 17:00:00,
2013-02-20 12:10:00,16.3,12.6,30.14,WNW,294,5.0,28.0,85,0.00,,---,0.00,VWS V14.00,2013-02-20 17:10:00,
2013-02-20 12:18:00,16.5,13.1,30.13,NW,304,4.0,28.0,86,0.00,,---,0.00,VWS V14.00,2013-02-20 17:18:00,
2013-02-20 12:26:00,16.4,12.7,30.14,NW,314,13.0,28.0,85,0.00,,---,0.00,VWS V14.00,2013-02-20 17:26:00,
2013-02-20 12:34:00,16.7,12.7,30.14,WNW,299,3.0,10.0,84,0.00,,---,0.00,VWS V14.00,2013-02-20 17:34:00,
2013-02-20 12:42:00,17.1,12.8,30.14,NNW,331,10.0,11.0,83,0.00,,---,0.00,VWS V14.00,2013-02-20 17:42:00,
2013-02-20 12:50:00,17.3,12.5,30.14,NW,312,4.0,13.0,81,0.00,,---,0.00,VWS V14.00,2013-02-20 17:50:00,
2013-02-20 12:58:00,16.8,12.5,30.15,NW,314,7.0,23.0,83,0.00,,---,0.00,VWS V14.00,2013-02-20 17:58:00,
2013-02-20 13:06:00,16.5,12.8,30.15,NNW,331,9.0,12.0,85,0.00,,---,0.00,VWS V14.00,2013-02-20 18:06:00,
2013-02-20 13:14:00,16.8,12.5,30.15,WSW,251,11.0,21.0,83,0.00,,---,0.00,VWS V14.00,2013-02-20 18:14:00,
2013-02-20 13:22:00,17.5,12.9,30.15,NW,306,1.0,21.0,82,0.00,,---,0.00,VWS V14.00,2013-02-20 18:22:00,
2013-02-20 13:30:00,17.1,12.6,30.16,WNW,293,7.0,21.0,82,0.00,,---,0.00,VWS V14.00,2013-02-20 18:30:00,
2013-02-20 13:38:00,17.0,13.0,30.16,WSW,243,10.0,16.0,84,0.00,,---,0.00,VWS V14.00,2013-02-20 18:38:00,
2013-02-20 13:46:00,17.1,12.6,30.16,WNW,288,12.0,16.0,82,0.00,,---,0.00,VWS V14.00,2013-02-20 18:46:00,
2013-02-20 13:54:00,17.1,12.6,30.17,WSW,258,11.0,16.0,82,0.00,,---,0.00,VWS V14.00,2013-02-20 18:54:00,
2013-02-20 14:00:00,17.2,12.7,30.17,NW,316,10.0,18.0,82,0.00,,---,0.00,VWS V14.00,2013-02-20 19:00:00,
2013-02-20 14:10:00,16.9,12.4,30.17,West,260,13.0,17.0,82,0.00,,---,0.00,VWS V14.00,2013-02-20 19:10:00,
2013-02-20 14:18:00,17.3,12.8,30.17,NW,319,3.0,17.0,82,0.00,,---,0.00,VWS V14.00,2013-02-20 19:18:00,
2013-02-20 14:26:00,17.5,12.4,30.18,NW,314,4.0,18.0,80,0.00,,---,0.00,VWS V14.00,2013-02-20 19:26:00,
2013-02-20 14:34:00,17.1,12.6,30.18,West,276,8.0,15.0,82,0.00,,---,0.00,VWS V14.00,2013-02-20 19:34:00,
2013-02-20 14:42:00,17.1,12.6,30.18,NW,309,7.0,16.0,82,0.00,,---,0.00,VWS V14.00,2013-02-20 19:42:00,
2013-02-20 14:50:00,17.0,12.5,30.18,WSW,251,3.0,16.0,82,0.00,,---,0.00,VWS V14.00,2013-02-20 19:50:00,
2013-02-20 14:58:00,17.1,13.1,30.19,WNW,286,4.0,17.0,84,0.00,,---,0.00,VWS V14.00,2013-02-20 19:58:00,
2013-02-20 15:06:00,17.0,13.3,30.19,SW,232,3.0,15.0,85,0.00,,---,0.00,VWS V14.00,2013-02-20 20:06:00,
2013-02-20 15:14:00,17.0,13.0,30.19,NW,306,6.0,15.0,84,0.00,,---,0.00,VWS V14.00,2013-02-20 20:14:00,
2013-02-20 15:22:00,16.9,13.2,30.20,WNW,288,3.0,15.0,85,0.00,,---,0.00,VWS V14.00,2013-02-20 20:22:00,
2013-02-20 15:30:00,16.9,13.4,30.20,NW,306,4.0,15.0,86,0.00,,---,0.00,VWS V14.00,2013-02-20 20:30:00,
2013-02-20 15:38:00,16.8,12.8,30.20,NW,313,7.0,21.0,84,0.00,,---,0.00,VWS V14.00,2013-02-20 20:38:00,
2013-02-20 15:46:00,17.1,12.6,30.20,SW,216,7.0,21.0,82,0.00,,---,0.00,VWS V14.00,2013-02-20 20:46:00,
2013-02-20 15:54:00,17.1,12.8,30.21,WNW,286,5.0,21.0,83,0.00,,---,0.00,VWS V14.00,2013-02-20 20:54:00,
2013-02-20 16:00:00,17.0,12.7,30.21,NNW,347,5.0,21.0,83,0.00,,---,0.00,VWS V14.00,2013-02-20 21:00:00,
2013-02-20 16:10:00,17.0,13.0,30.21,WNW,292,7.0,14.0,84,0.00,,---,0.00,VWS V14.00,2013-02-20 21:10:00,
2013-02-20 16:18:00,17.0,13.0,30.21,NW,311,5.0,14.0,84,0.00,,---,0.00,VWS V14.00,2013-02-20 21:18:00,
2013-02-20 16:26:00,16.8,13.4,30.21,WNW,300,3.0,16.0,86,0.00,,---,0.00,VWS V14.00,2013-02-20 21:26:00,
2013-02-20 16:34:00,16.8,13.1,30.22,WSW,248,3.0,14.0,85,0.00,,---,0.00,VWS V14.00,2013-02-20 21:34:00,
2013-02-20 16:42:00,16.8,13.1,30.22,West,277,5.0,15.0,85,0.00,,---,0.00,VWS V14.00,2013-02-20 21:42:00,
2013-02-20 16:50:00,16.8,13.4,30.23,WNW,301,2.0,15.0,86,0.00,,---,0.00,VWS V14.00,2013-02-20 21:50:00,
2013-02-20 16:58:00,16.8,13.4,30.23,West,276,1.0,15.0,86,0.00,,---,0.00,VWS V14.00,2013-02-20 21:58:00,
2013-02-20 17:06:00,16.8,13.6,30.24,WSW,256,0.0,9.0,87,0.00,,---,0.00,VWS V14.00,2013-02-20 22:06:00,
2013-02-20 17:14:00,16.9,13.7,30.24,WSW,256,1.0,9.0,87,0.00,,---,0.00,VWS V14.00,2013-02-20 22:14:00,
2013-02-20 17:22:00,16.9,13.7,30.25,WSW,256,0.0,9.0,87,0.00,,---,0.00,VWS V14.00,2013-02-20 22:22:00,
2013-02-20 17:30:00,16.8,13.6,30.25,NW,307,8.0,9.0,87,0.00,,---,0.00,VWS V14.00,2013-02-20 22:30:00,
2013-02-20 17:38:00,16.8,13.6,30.26,NW,310,3.0,8.0,87,0.00,,---,0.00,VWS V14.00,2013-02-20 22:38:00,
2013-02-20 17:46:00,16.7,13.5,30.26,WNW,302,5.0,10.0,87,0.00,,---,0.00,VWS V14.00,2013-02-20 22:46:00,
2013-02-20 17:54:00,16.6,13.4,30.26,WSW,240,1.0,10.0,87,0.00,,---,0.00,VWS V14.00,2013-02-20 22:54:00,
2013-02-20 18:00:00,16.5,13.3,30.27,WSW,252,4.0,10.0,87,0.00,,---,0.00,VWS V14.00,2013-02-20 23:00:00,
2013-02-20 18:10:00,16.5,13.3,30.27,WNW,295,4.0,11.0,87,0.00,,---,0.00,VWS V14.00,2013-02-20 23:10:00,
2013-02-20 18:18:00,16.4,13.2,30.27,West,263,1.0,11.0,87,0.00,,---,0.00,VWS V14.00,2013-02-20 23:18:00,
2013-02-20 18:26:00,16.4,13.2,30.28,West,275,5.0,11.0,87,0.00,,---,0.00,VWS V14.00,2013-02-20 23:26:00,
2013-02-20 18:34:00,16.3,13.4,30.28,NW,308,3.0,10.0,88,0.00,,---,0.00,VWS V14.00,2013-02-20 23:34:00,
2013-02-20 18:42:00,16.3,13.4,30.28,West,266,2.0,10.0,88,0.00,,---,0.00,VWS V14.00,2013-02-20 23:42:00,
2013-02-20 18:51:00,16.3,13.4,30.29,NW,311,2.0,10.0,88,0.00,,---,0.00,VWS V14.00,2013-02-20 23:51:00,
2013-02-20 18:59:00,16.4,13.2,30.29,WNW,300,2.0,12.0,87,0.00,,---,0.00,VWS V14.00,2013-02-20 23:59:00,
2013-02-20 19:07:00,16.4,13.2,30.28,NW,310,6.0,9.0,87,0.00,,---,0.00,VWS V14.00,2013-02-21 00:07:00,
2013-02-20 19:15:00,16.4,13.2,30.28,NW,305,0.0,11.0,87,0.00,,---,0.00,VWS V14.00,2013-02-21 00:15:00,
2013-02-20 19:23:00,16.5,13.3,30.29,WNW,301,4.0,13.0,87,0.00,,---,0.00,VWS V14.00,2013-02-21 00:23:00,
2013-02-20 19:30:00,16.5,13.3,30.29,WNW,302,7.0,13.0,87,0.00,,---,0.00,VWS V14.00,2013-02-21 00:30:00,
2013-02-20 19:39:00,16.6,13.1,30.28,WNW,287,8.0,13.0,86,0.00,,---,0.00,VWS V14.00,2013-02-21 00:39:00,
2013-02-20 19:47:00,16.6,13.1,30.28,WNW,301,3.0,13.0,86,0.00,,---,0.00,VWS V14.00,2013-02-21 00:47:00,
2013-02-20 19:55:00,16.7,13.2,30.28,NW,305,4.0,13.0,86,0.00,,---,0.00,VWS V14.00,2013-02-21 00:55:00,
2013-02-20 20:00:00,16.7,13.2,30.28,WNW,286,5.0,13.0,86,0.00,,---,0.00,VWS V14.00,2013-02-21 01:00:00,
2013-02-20 20:11:00,16.6,13.1,30.28,WSW,257,6.0,11.0,86,0.00,,---,0.00,VWS V14.00,2013-02-21 01:11:00,
2013-02-20 20:19:00,16.7,13.2,30.28,WNW,292,2.0,11.0,86,0.00,,---,0.00,VWS V14.00,2013-02-21 01:19:00,
2013-02-20 20:27:00,16.7,13.2,30.28,WNW,292,5.0,11.0,86,0.00,,---,0.00,VWS V14.00,2013-02-21 01:27:00,
2013-02-20 20:35:00,16.7,13.2,30.28,NW,306,6.0,8.0,86,0.00,,---,0.00,VWS V14.00,2013-02-21 01:35:00,
2013-02-20 20:43:00,16.8,13.4,30.28,WSW,257,10.0,13.0,86,0.00,,---,0.00,VWS V14.00,2013-02-21 01:43:00,
2013-02-20 20:51:00,17.0,13.5,30.29,NNW,344,3.0,13.0,86,0.00,,---,0.00,VWS V14.00,2013-02-21 01:51:00,
2013-02-20 20:59:00,17.0,13.5,30.29,NW,312,3.0,13.0,86,0.00,,---,0.00,VWS V14.00,2013-02-21 01:59:00,
2013-02-20 21:07:00,17.1,13.6,30.29,WNW,298,4.0,7.0,86,0.00,,---,0.00,VWS V14.00,2013-02-21 02:07:00,
2013-02-20 21:15:00,17.1,13.4,30.29,NW,309,7.0,11.0,85,0.00,,---,0.00,VWS V14.00,2013-02-21 02:15:00,
2013-02-20 21:23:00,17.1,13.4,30.29,NW,322,3.0,11.0,85,0.00,,---,0.00,VWS V14.00,2013-02-21 02:23:00,
2013-02-20 21:30:00,17.2,13.5,30.29,WSW,240,2.0,11.0,85,0.00,,---,0.00,VWS V14.00,2013-02-21 02:30:00,
2013-02-20 21:39:00,17.2,13.5,30.29,NW,309,6.0,9.0,85,0.00,,---,0.00,VWS V14.00,2013-02-21 02:39:00,
2013-02-20 21:47:00,17.1,13.4,30.29,NW,317,4.0,9.0,85,0.00,,---,0.00,VWS V14.00,2013-02-21 02:47:00,
2013-02-20 21:55:00,17.1,13.4,30.29,West,275,3.0,9.0,85,0.00,,---,0.00,VWS V14.00,2013-02-21 02:55:00,
2013-02-20 22:00:00,17.1,13.6,30.29,NW,311,1.0,9.0,86,0.00,,---,0.00,VWS V14.00,2013-02-21 03:00:00,
2013-02-20 22:11:00,17.1,13.6,30.28,NW,311,3.0,10.0,86,0.00,,---,0.00,VWS V14.00,2013-02-21 03:11:00,
2013-02-20 22:19:00,17.1,13.4,30.28,West,281,7.0,10.0,85,0.00,,---,0.00,VWS V14.00,2013-02-21 03:19:00,
2013-02-20 22:27:00,17.2,13.7,30.28,NW,325,2.0,10.0,86,0.00,,---,0.00,VWS V14.00,2013-02-21 03:27:00,
2013-02-20 22:35:00,17.1,13.6,30.28,WNW,291,3.0,8.0,86,0.00,,---,0.00,VWS V14.00,2013-02-21 03:35:00,
2013-02-20 22:43:00,17.1,13.6,30.28,WNW,300,4.0,8.0,86,0.00,,---,0.00,VWS V14.00,2013-02-21 03:43:00,
2013-02-20 22:51:00,17.2,13.7,30.28,NW,325,3.0,9.0,86,0.00,,---,0.00,VWS V14.00,2013-02-21 03:51:00,
2013-02-20 22:59:00,17.2,13.7,30.28,WSW,247,3.0,9.0,86,0.00,,---,0.00,VWS V14.00,2013-02-21 03:59:00,
2013-02-20 23:07:00,17.2,13.7,30.28,WSW,253,4.0,8.0,86,0.00,,---,0.00,VWS V14.00,2013-02-21 04:07:00,
2013-02-20 23:15:00,17.2,13.7,30.28,WNW,303,2.0,8.0,86,0.00,,---,0.00,VWS V14.00,2013-02-21 04:15:00,
2013-02-20 23:23:00,17.2,13.7,30.28,WNW,284,4.0,8.0,86,0.00,,---,0.00,VWS V14.00,2013-02-21 04:23:00,
2013-02-20 23:30:00,17.1,13.9,30.28,West,279,6.0,8.0,87,0.00,,---,0.00,VWS V14.00,2013-02-21 04:30:00,
2013-02-20 23:39:00,17.1,13.9,30.28,NW,312,4.0,8.0,87,0.00,,---,0.00,VWS V14.00,2013-02-21 04:39:00,
2013-02-20 23:47:00,17.1,13.9,30.27,NW,309,2.0,8.0,87,0.00,,---,0.00,VWS V14.00,2013-02-21 04:47:00,
2013-02-20 23:55:00,17.1,13.9,30.27,NW,308,5.0,8.0,87,0.00,,---,0.00,VWS V14.00,2013-02-21 04:55:00,